createdAt,value
2022-12-14T00:01:54.374Z,92.17
2022-12-14T00:06:56.147Z,92.23
2022-12-14T00:11:58.808Z,91.86
2022-12-14T00:17:00.681Z,91.46
2022-12-14T00:22:02.432Z,91.51
2022-12-14T00:27:04.277Z,91.69
2022-12-14T00:32:06.450Z,92.06
2022-12-14T00:37:11.170Z,92.53
2022-12-14T00:42:12.910Z,92.71
2022-12-14T00:47:14.754Z,92.98
2022-12-14T00:52:16.515Z,93.23
2022-12-14T00:57:18.287Z,93.27
2022-12-14T01:02:20.187Z,93.50
2022-12-14T01:07:22.081Z,93.42
2022-12-14T01:12:23.881Z,93.18
2022-12-14T01:17:25.611Z,92.89
2022-12-14T01:22:27.461Z,93.01
2022-12-14T01:27:29.421Z,93.04
2022-12-14T01:32:31.255Z,92.93
2022-12-14T01:37:33.002Z,92.86
2022-12-14T01:42:36.546Z,93.16
2022-12-14T01:47:43.185Z,93.07
2022-12-14T01:52:47.861Z,93.21
2022-12-14T01:58:15.401Z,93.16
2022-12-14T02:03:38.228Z,92.93
2022-12-14T02:08:43.440Z,92.71
2022-12-14T02:13:45.260Z,92.61
2022-12-14T02:18:50.746Z,92.42
2022-12-14T02:24:20.078Z,92.35
2022-12-14T02:29:43.491Z,92.24
2022-12-14T02:35:18.804Z,92.33
2022-12-14T02:40:32.652Z,92.23
2022-12-14T02:46:03.446Z,92.24
2022-12-14T02:51:49.932Z,92.13
2022-12-14T02:56:59.689Z,92.36
2022-12-14T03:02:03.703Z,92.35
2022-12-14T03:07:34.208Z,92.19
2022-12-14T03:12:40.367Z,92.35
2022-12-14T03:17:46.551Z,92.16
2022-12-14T03:22:59.022Z,92.27
2022-12-14T03:28:14.443Z,92.53
2022-12-14T03:33:20.187Z,92.47
2022-12-14T03:38:37.939Z,92.67
2022-12-14T03:44:17.367Z,92.67
2022-12-14T03:49:32.824Z,92.47
2022-12-14T03:54:53.724Z,92.49
2022-12-14T04:00:13.087Z,92.41
2022-12-14T04:05:30.291Z,92.36
2022-12-14T04:10:58.818Z,92.39
2022-12-14T04:16:25.851Z,92.45
2022-12-14T04:21:40.101Z,92.32
2022-12-14T04:26:54.673Z,92.49
2022-12-14T04:32:25.845Z,92.47
2022-12-14T04:37:29.043Z,92.28
2022-12-14T04:42:41.616Z,92.19
2022-12-14T04:47:51.408Z,92.51
2022-12-14T04:53:01.782Z,92.36
2022-12-14T04:58:24.609Z,92.42
2022-12-14T05:03:32.244Z,92.41
2022-12-14T05:08:52.351Z,92.29
2022-12-14T05:13:54.021Z,92.12
2022-12-14T05:18:55.789Z,91.86
2022-12-14T05:23:59.856Z,91.73
2022-12-14T05:29:01.690Z,92.18
2022-12-14T05:34:03.899Z,92.29
2022-12-14T05:39:06.073Z,92.52
2022-12-14T05:44:07.865Z,92.60
2022-12-14T05:49:09.981Z,92.62
2022-12-14T05:54:11.859Z,92.62
2022-12-14T05:59:15.852Z,92.39
2022-12-14T06:04:18.850Z,92.43
2022-12-14T06:09:20.801Z,92.48
2022-12-14T06:14:24.499Z,92.54
2022-12-14T06:19:26.241Z,92.25
2022-12-14T06:24:28.083Z,92.09
2022-12-14T06:29:29.889Z,92.01
2022-12-14T06:34:35.353Z,92.18
2022-12-14T06:39:40.442Z,92.15
2022-12-14T06:44:42.254Z,92.03
2022-12-14T06:49:44.629Z,91.96
2022-12-14T06:54:47.113Z,91.58
2022-12-14T06:59:48.860Z,91.62
2022-12-14T07:04:50.627Z,91.85
2022-12-14T07:09:52.498Z,92.07
2022-12-14T07:14:55.313Z,92.17
2022-12-14T07:19:57.277Z,92.17
2022-12-14T07:24:59.138Z,92.10
2022-12-14T07:30:01.014Z,92.17
2022-12-14T07:35:02.844Z,92.21
2022-12-14T07:40:05.356Z,91.98
2022-12-14T07:45:07.506Z,91.79
2022-12-14T07:50:09.517Z,91.98
2022-12-14T07:55:11.431Z,91.96
2022-12-14T08:00:13.786Z,91.90
2022-12-14T08:05:16.376Z,91.69
2022-12-14T08:10:18.218Z,91.65
2022-12-14T08:15:19.985Z,91.50
2022-12-14T08:20:21.756Z,91.43
2022-12-14T08:25:23.563Z,91.28
2022-12-14T08:30:25.429Z,91.18
2022-12-14T08:35:27.259Z,90.91
2022-12-14T08:40:29.681Z,90.74
2022-12-14T08:45:31.785Z,90.37
2022-12-14T08:50:33.595Z,90.05
2022-12-14T08:55:38.795Z,89.87
2022-12-14T09:00:40.856Z,90.03
2022-12-14T09:05:42.668Z,89.87
2022-12-14T09:10:50.744Z,89.82
2022-12-14T09:16:18.095Z,89.58
2022-12-14T09:21:20.113Z,89.38
2022-12-14T09:26:25.260Z,89.06
2022-12-14T09:31:27.995Z,88.74
2022-12-14T09:36:29.967Z,88.47
2022-12-14T09:41:34.812Z,89.13
2022-12-14T09:46:52.580Z,89.17
2022-12-14T09:51:57.285Z,89.27
2022-12-14T09:57:04.752Z,89.02
2022-12-14T10:02:40.302Z,88.29
2022-12-14T10:07:51.537Z,88.46
2022-12-14T10:13:13.453Z,88.03
2022-12-14T10:19:00.606Z,87.50
2022-12-14T10:24:06.400Z,86.89
2022-12-14T10:29:14.500Z,87.02
2022-12-14T10:34:24.763Z,87.06
2022-12-14T10:39:40.118Z,86.96
2022-12-14T10:45:23.331Z,85.98
2022-12-14T10:50:32.622Z,85.76
2022-12-14T10:55:40.158Z,85.75
2022-12-14T11:00:42.160Z,85.61
2022-12-14T11:06:03.927Z,85.46
2022-12-14T11:11:18.644Z,85.51
2022-12-14T11:16:36.501Z,85.58
2022-12-14T11:21:39.200Z,85.41
2022-12-14T11:26:42.945Z,84.93
2022-12-14T11:31:47.874Z,85.19
2022-12-14T11:36:50.243Z,84.90
2022-12-14T11:42:02.075Z,85.07
2022-12-14T11:47:13.238Z,84.70
2022-12-14T11:52:18.336Z,84.51
2022-12-14T11:57:30.947Z,83.64
2022-12-14T12:02:38.336Z,83.99
2022-12-14T12:07:56.851Z,83.65
2022-12-14T12:13:01.480Z,82.96
2022-12-14T12:18:17.106Z,82.53
2022-12-14T12:23:27.569Z,82.26
2022-12-14T12:28:35.715Z,82.23
2022-12-14T12:33:46.672Z,82.47
2022-12-14T12:39:24.902Z,81.97
2022-12-14T12:45:08.201Z,82.52
2022-12-14T12:50:32.154Z,82.34
2022-12-14T12:56:08.544Z,82.59
2022-12-14T13:01:42.487Z,82.58
2022-12-14T13:06:55.760Z,82.75
2022-12-14T13:11:58.598Z,82.84
2022-12-14T13:17:05.371Z,83.06
2022-12-14T13:22:15.125Z,82.65
2022-12-14T13:27:44.434Z,83.01
2022-12-14T13:32:55.733Z,83.14
2022-12-14T13:38:12.871Z,83.34
2022-12-14T13:44:08.201Z,83.64
2022-12-14T13:49:21.852Z,83.62
2022-12-14T13:54:30.471Z,83.86
2022-12-14T13:59:45.924Z,83.99
2022-12-14T14:04:47.735Z,84.31
2022-12-14T14:09:55.915Z,84.09
2022-12-14T14:15:07.931Z,83.99
2022-12-14T14:20:47.040Z,84.01
2022-12-14T14:25:48.891Z,84.13
2022-12-14T14:30:54.690Z,84.23
2022-12-14T14:36:25.173Z,84.70
2022-12-14T14:41:40.709Z,84.91
2022-12-14T14:46:48.158Z,85.22
2022-12-14T14:51:50.264Z,85.25
2022-12-14T14:56:53.117Z,85.50
2022-12-14T15:02:00.904Z,85.89
2022-12-14T15:07:07.526Z,85.97
2022-12-14T15:12:34.834Z,86.47
2022-12-14T15:17:36.672Z,86.82
2022-12-14T15:22:43.394Z,87.10
2022-12-14T15:27:48.579Z,87.39
2022-12-14T15:33:21.104Z,87.87
2022-12-14T15:38:27.717Z,88.08
2022-12-14T15:43:30.709Z,88.33
2022-12-14T15:48:35.171Z,88.71
2022-12-14T15:53:53.523Z,89.03
2022-12-14T15:59:01.190Z,89.42
2022-12-14T16:04:09.778Z,89.82
2022-12-14T16:09:19.615Z,90.02
2022-12-14T16:14:30.252Z,90.12
2022-12-14T16:19:57.611Z,90.56
2022-12-14T16:25:07.897Z,90.42
2022-12-14T16:30:21.896Z,90.98
2022-12-14T16:35:26.404Z,90.90
2022-12-14T16:40:32.098Z,91.16
2022-12-14T16:45:43.298Z,91.46
2022-12-14T16:50:57.017Z,91.40
2022-12-14T16:56:19.498Z,91.46
2022-12-14T17:01:25.342Z,91.83
2022-12-14T17:06:36.688Z,92.08
2022-12-14T17:11:40.189Z,92.02
2022-12-14T17:16:43.079Z,92.64
2022-12-14T17:21:45.112Z,92.69
2022-12-14T17:26:48.071Z,92.68
2022-12-14T17:31:52.899Z,92.85
2022-12-14T17:36:57.090Z,92.82
2022-12-14T17:42:00.677Z,92.78
2022-12-14T17:47:02.714Z,92.91
2022-12-14T17:52:07.955Z,92.82
2022-12-14T17:57:23.117Z,92.98
2022-12-14T18:02:32.830Z,93.33
2022-12-14T18:07:35.007Z,93.24
2022-12-14T18:12:36.920Z,93.27
2022-12-14T18:17:38.948Z,93.70
2022-12-14T18:22:41.035Z,93.55
2022-12-14T18:27:43.033Z,93.55
2022-12-14T18:32:46.132Z,93.53
2022-12-14T18:37:51.688Z,93.65
2022-12-14T18:42:56.508Z,93.42
2022-12-14T18:47:59.815Z,93.73
2022-12-14T18:53:05.031Z,93.90
2022-12-14T18:58:09.959Z,94.22
2022-12-14T19:03:15.457Z,94.18
2022-12-14T19:08:18.104Z,94.14
2022-12-14T19:13:26.148Z,93.97
2022-12-14T19:18:30.881Z,94.17
2022-12-14T19:23:33.269Z,94.45
2022-12-14T19:28:35.745Z,94.50
2022-12-14T19:33:40.966Z,94.36
2022-12-14T19:38:42.980Z,94.49
2022-12-14T19:43:47.634Z,94.95
2022-12-14T19:48:51.467Z,94.64
2022-12-14T19:53:55.210Z,94.63
2022-12-14T19:59:03.691Z,94.76
2022-12-14T20:04:06.356Z,95.02
2022-12-14T20:09:08.856Z,95.12
2022-12-14T20:14:12.573Z,94.88
2022-12-14T20:19:16.485Z,94.82
2022-12-14T20:24:21.301Z,94.90
2022-12-14T20:29:24.765Z,95.02
2022-12-14T20:34:29.137Z,94.78
2022-12-14T20:39:31.196Z,94.92
2022-12-14T20:44:33.101Z,95.36
2022-12-14T20:49:35.023Z,95.93
2022-12-14T20:54:36.967Z,95.42
2022-12-14T20:59:38.813Z,95.36
2022-12-14T21:04:40.576Z,95.13
2022-12-14T21:09:42.280Z,95.51
2022-12-14T21:14:48.105Z,95.35
2022-12-14T21:19:50.891Z,95.02
2022-12-14T21:25:08.259Z,95.35
2022-12-14T21:30:11.495Z,95.62
2022-12-14T21:35:17.807Z,95.63
2022-12-14T21:40:39.589Z,95.51
2022-12-14T21:45:41.528Z,95.68
2022-12-14T21:50:45.260Z,95.69
2022-12-14T21:55:51.669Z,95.91
2022-12-14T22:00:53.470Z,95.75
2022-12-14T22:05:55.258Z,95.52
2022-12-14T22:11:02.496Z,95.62
2022-12-14T22:16:07.623Z,95.69
2022-12-14T22:21:10.044Z,95.77
2022-12-14T22:26:11.906Z,95.93
2022-12-14T22:31:13.956Z,95.59
2022-12-14T22:36:16.244Z,95.45
2022-12-14T22:41:20.194Z,95.91
2022-12-14T22:46:23.543Z,95.77
2022-12-14T22:51:26.122Z,95.61
2022-12-14T22:56:34.203Z,95.38
2022-12-14T23:01:37.589Z,95.79
2022-12-14T23:06:40.969Z,96.06
2022-12-14T23:12:01.490Z,96.20
2022-12-14T23:17:22.502Z,96.21
2022-12-14T23:22:42.967Z,96.31
2022-12-14T23:28:03.527Z,96.02
2022-12-14T23:33:23.973Z,96.04
2022-12-14T23:38:44.623Z,95.99
2022-12-14T23:44:05.232Z,96.24
2022-12-14T23:49:25.981Z,96.00
2022-12-14T23:54:46.456Z,96.00
